Time;durP1;ratioP1;P1;durP2;ratioP2;P2;SDS_P1;SDS_P2;PMS_P1;PMS_P2;Temp;Humidity;BMP_temperature;BMP_pressure;BME280_temperature;BME280_humidity;BME280_pressure;Samples;Min_cycle;Max_cycle;Signal;HPM_P1;HPM_P2
2023/03/16 00:00:08;;;;;;;;;;;;;;;9.81;65.07;98447.94;333082;29;2129;-72
2023/03/16 00:00:18;;;;;;;;;;;;;;;9.82;64.84;98459.22;330534;29;2327;-72
2023/03/16 00:00:30;;;;;;;;;;;;;;;9.83;65.13;98455.69;327144;30;4031;-74
2023/03/16 00:00:41;;;;;;;;;;;;;;;9.82;64.74;98454.84;325364;30;2903;-73
2023/03/16 00:00:52;;;;;;;;;;;;;;;9.82;65.28;98459.22;325965;30;897;-73
2023/03/16 00:01:03;;;;;;;;;;;;;;;9.82;64.99;98460.06;325024;30;1623;-73
2023/03/16 00:01:13;;;;;;;;;;;;;;;9.81;65.38;98453.16;322244;30;1506;-73
2023/03/16 00:01:24;;;;;;;;;;;;;;;9.82;65.22;98460.06;324659;30;1011;-73
2023/03/16 00:01:34;;;;;;;;;;;;;;;9.82;65.84;98457.47;322713;30;2117;-72
2023/03/16 00:01:44;;;;;;;;;;;;;;;9.82;65.58;98449.63;319066;30;2238;-74
2023/03/16 00:01:54;;;;;;;;;;;;;;;9.83;65.48;98456.53;318859;31;790;-73
2023/03/16 00:02:05;;;;;;;;;;;;;;;9.83;65.92;98459.16;320721;30;2434;-72
2023/03/16 00:02:15;;;;;;;;;;;;;;;9.84;65.70;98457.38;321140;30;3164;-72
2023/03/16 00:02:25;;;;;;;;;;;;;;;9.83;65.75;98461.75;323540;30;829;-72
2023/03/16 00:02:35;;;;;;;;;;;;;;;9.84;65.47;98457.38;319359;30;3438;-74
2023/03/16 00:02:46;;;;;;;;;;;;;;;9.84;65.69;98457.38;319752;30;3062;-76
2023/03/16 00:02:56;;;;;;;;;;;;;;;9.84;65.56;98460.00;318715;31;1187;-73
2023/03/16 00:03:06;;;;;;;;;;;;;;;9.83;65.74;98460.91;321669;30;2779;-73
2023/03/16 00:03:18;;;;;;;;;;;;;;;9.83;66.02;98460.91;322422;30;2086;-74
2023/03/16 00:03:29;;;;;;;;;;;;;;;9.83;65.98;98463.53;321653;30;2508;-74
2023/03/16 00:03:39;;;;;;;;;;;;;;;9.83;65.99;98463.53;321166;30;740;-72
2023/03/16 00:03:49;;;;;;;;;;;;;;;9.85;65.89;98461.69;320194;30;3027;-73
2023/03/16 00:04:00;;;;;;;;;;;;;;;9.84;65.69;98463.44;318933;30;3403;-73
2023/03/16 00:04:10;;;;;;;;;;;;;;;9.85;65.89;98459.06;317703;31;857;-73
2023/03/16 00:04:20;;;;;;;;;;;;;;;9.85;65.82;98464.28;318678;30;3828;-73
2023/03/16 00:04:30;;;;;;;;;;;;;;;9.86;66.04;98466.81;316292;31;5845;-73
2023/03/16 00:04:41;;;;;;;;;;;;;;;9.87;65.51;98462.44;314207;31;1286;-73
2023/03/16 00:04:51;;;;;;;;;;;;;;;9.86;65.80;98463.34;312217;31;4460;-79
2023/03/16 00:05:01;;;;;;;;;;;;;;;9.86;65.82;98455.53;309851;31;4781;-72
2023/03/16 00:05:12;;;;;;;;;;;;;;;9.85;66.18;98459.06;310860;31;1117;-73
2023/03/16 00:05:24;;;;;;;;;;;;;;;9.85;66.01;98465.13;305439;32;1236;-72
2023/03/16 00:05:35;;;;;;;;;;;;;;;9.84;65.97;98463.44;303258;32;3076;-73
2023/03/16 00:05:48;;;;;;;;;;;;;;;9.84;66.13;98462.59;301305;32;4447;-74
2023/03/16 00:05:59;;;;;;;;;;;;;;;9.83;65.79;98460.91;299881;32;4082;-72
2023/03/16 00:06:09;;;;;;;;;;;;;;;9.84;65.86;98457.38;303356;32;889;-73
2023/03/16 00:06:19;;;;;;;;;;;;;;;9.83;66.19;98464.38;302703;32;5147;-74
2023/03/16 00:06:29;;;;;;;;;;;;;;;9.84;66.09;98463.44;300688;32;5660;-73
2023/03/16 00:06:39;;;;;;;;;;;;;;;9.84;65.94;98462.59;300266;32;1492;-73
2023/03/16 00:06:50;;;;;;;;;;;;;;;9.83;66.03;98467.00;293354;33;7093;-72
2023/03/16 00:07:00;;;;;;;;;;;;;;;9.83;65.92;98464.38;292898;33;6983;-73
2023/03/16 00:07:10;;;;;;;;;;;;;;;9.84;65.74;98463.44;294135;33;1324;-74
2023/03/16 00:07:20;;;;;;;;;;;;;;;9.85;65.92;98459.06;288547;33;6450;-73
2023/03/16 00:07:31;;;;;;;;;;;;;;;9.85;65.76;98459.06;287227;34;6443;-73
2023/03/16 00:07:41;;;;;;;;;;;;;;;9.86;66.03;98468.59;289467;34;869;-74
2023/03/16 00:07:51;;;;;;;;;;;;;;;9.86;65.87;98460.75;290961;33;4551;-73
2023/03/16 00:08:01;;;;;;;;;;;;;;;9.87;66.12;98462.44;290133;33;5463;-73
2023/03/16 00:08:12;;;;;;;;;;;;;;;9.87;65.98;98462.44;287861;34;6915;-74
2023/03/16 00:08:22;;;;;;;;;;;;;;;9.87;65.78;98462.44;287534;34;1120;-72
2023/03/16 00:08:34;;;;;;;;;;;;;;;9.87;65.71;98463.28;284522;34;8324;-74
2023/03/16 00:10:18;;;;;;;;;;;;;;;9.89;65.89;98465.81;2497052;27;19937;-73
2023/03/16 00:10:28;;;;;;;;;;;;;;;9.89;66.00;98460.56;353175;28;1273;-72
2023/03/16 00:10:38;;;;;;;;;;;;;;;9.88;66.17;98458.91;353367;28;792;-72
2023/03/16 00:10:49;;;;;;;;;;;;;;;9.88;66.13;98458.91;350424;28;1316;-72
2023/03/16 00:11:01;;;;;;;;;;;;;;;9.87;66.40;98462.44;349111;28;1406;-73
2023/03/16 00:11:11;;;;;;;;;;;;;;;9.87;66.20;98459.81;349202;28;820;-72
2023/03/16 00:11:21;;;;;;;;;;;;;;;9.87;66.26;98462.44;349241;28;754;-73
2023/03/16 00:11:32;;;;;;;;;;;;;;;9.88;66.32;98464.97;349033;28;915;-73
2023/03/16 00:11:42;;;;;;;;;;;;;;;9.88;66.47;98466.72;349130;28;915;-73
2023/03/16 00:11:52;;;;;;;;;;;;;;;9.87;66.31;98463.28;349175;28;1333;-73
2023/03/16 00:12:02;;;;;;;;;;;;;;;9.86;66.31;98464.19;349185;28;785;-73
2023/03/16 00:12:15;;;;;;;;;;;;;;;9.87;66.37;98462.44;349034;28;1199;-73
2023/03/16 00:12:25;;;;;;;;;;;;;;;9.87;66.59;98462.44;349129;28;847;-73
2023/03/16 00:12:35;;;;;;;;;;;;;;;9.86;66.85;98463.34;347693;28;1352;-73
2023/03/16 00:12:45;;;;;;;;;;;;;;;9.86;66.57;98466.81;348882;28;1340;-73
2023/03/16 00:12:56;;;;;;;;;;;;;;;9.85;66.78;98462.53;349224;28;1213;-73
2023/03/16 00:13:06;;;;;;;;;;;;;;;9.86;66.75;98463.34;347779;28;947;-73
2023/03/16 00:13:16;;;;;;;;;;;;;;;9.85;66.89;98464.28;347728;28;866;-73
2023/03/16 00:13:26;;;;;;;;;;;;;;;9.85;66.85;98464.28;349256;28;808;-73
2023/03/16 00:13:37;;;;;;;;;;;;;;;9.85;66.43;98459.06;347898;28;1041;-73
2023/03/16 00:13:47;;;;;;;;;;;;;;;9.85;66.51;98459.06;347651;28;1204;-73
2023/03/16 00:13:57;;;;;;;;;;;;;;;9.83;66.73;98456.53;348359;28;857;-73
2023/03/16 00:14:07;;;;;;;;;;;;;;;9.83;66.74;98461.75;350405;28;946;-73
2023/03/16 00:14:18;;;;;;;;;;;;;;;9.82;66.25;98459.22;349221;28;811;-73
2023/03/16 00:14:28;;;;;;;;;;;;;;;9.85;66.71;98464.28;349829;28;1284;-73
2023/03/16 00:14:39;;;;;;;;;;;;;;;9.85;66.49;98465.13;349066;28;1044;-73
2023/03/16 00:14:49;;;;;;;;;;;;;;;9.86;66.48;98468.59;349131;28;813;-73
2023/03/16 00:14:59;;;;;;;;;;;;;;;9.88;66.49;98464.13;349093;28;907;-73
2023/03/16 00:15:10;;;;;;;;;;;;;;;9.88;66.46;98461.50;350423;28;1222;-73
2023/03/16 00:15:21;;;;;;;;;;;;;;;9.88;66.52;98464.13;350576;28;908;-73
2023/03/16 00:15:31;;;;;;;;;;;;;;;9.88;66.78;98461.50;349218;28;797;-73
2023/03/16 00:15:41;;;;;;;;;;;;;;;9.87;66.69;98462.44;347128;28;951;-73
2023/03/16 00:15:55;;;;;;;;;;;;;;;9.87;66.85;98465.03;345444;28;1383;-73
2023/03/16 00:16:06;;;;;;;;;;;;;;;9.87;66.51;98457.22;344976;28;1339;-74
2023/03/16 00:16:16;;;;;;;;;;;;;;;9.86;66.94;98465.97;348827;28;1366;-73
2023/03/16 00:16:26;;;;;;;;;;;;;;;9.88;66.64;98461.50;349070;28;820;-73
2023/03/16 00:16:37;;;;;;;;;;;;;;;9.88;66.78;98464.13;347710;28;1160;-72
2023/03/16 00:16:47;;;;;;;;;;;;;;;9.88;66.68;98461.50;343678;28;853;-72
2023/03/16 00:16:57;;;;;;;;;;;;;;;9.89;66.60;98465.81;343680;28;1122;-72
2023/03/16 00:17:07;;;;;;;;;;;;;;;9.88;66.79;98458.91;342379;28;883;-72
2023/03/16 00:17:18;;;;;;;;;;;;;;;9.88;66.84;98461.50;343602;28;1242;-72
2023/03/16 00:17:28;;;;;;;;;;;;;;;9.88;66.81;98464.13;343674;28;812;-72
2023/03/16 00:17:39;;;;;;;;;;;;;;;9.89;66.82;98463.19;343322;28;1549;-73
2023/03/16 00:17:49;;;;;;;;;;;;;;;9.88;66.69;98456.28;342405;28;805;-73
2023/03/16 00:17:59;;;;;;;;;;;;;;;9.88;66.97;98466.72;342272;28;1133;-73
2023/03/16 00:18:09;;;;;;;;;;;;;;;9.88;66.87;98461.50;339203;29;1216;-72
2023/03/16 00:18:20;;;;;;;;;;;;;;;9.88;67.08;98459.72;338446;29;914;-72
2023/03/16 00:18:30;;;;;;;;;;;;;;;9.87;67.21;98468.50;341176;28;1175;-73
2023/03/16 00:18:40;;;;;;;;;;;;;;;9.87;67.01;98467.66;341581;28;1492;-73
2023/03/16 00:18:50;;;;;;;;;;;;;;;9.86;66.83;98456.38;336158;29;3607;-73
2023/03/16 00:19:02;;;;;;;;;;;;;;;9.87;66.92;98462.44;337976;29;2590;-73
2023/03/16 00:19:12;;;;;;;;;;;;;;;9.86;67.35;98465.97;335519;29;1275;-73
2023/03/16 00:19:22;;;;;;;;;;;;;;;9.86;67.17;98460.75;337058;29;896;-73
2023/03/16 00:19:34;;;;;;;;;;;;;;;9.86;67.09;98465.97;339737;29;866;-73
2023/03/16 00:19:47;;;;;;;;;;;;;;;9.87;67.32;98462.44;339601;29;1345;-73
2023/03/16 00:19:57;;;;;;;;;;;;;;;9.88;67.26;98464.13;336977;29;1011;-73
2023/03/16 00:20:08;;;;;;;;;;;;;;;9.88;67.20;98469.34;333021;29;1656;-73
2023/03/16 00:20:18;;;;;;;;;;;;;;;9.90;67.39;98467.50;333324;29;878;-73
2023/03/16 00:20:29;;;;;;;;;;;;;;;9.90;67.38;98464.88;331157;29;1748;-72
2023/03/16 00:20:40;;;;;;;;;;;;;;;9.89;67.30;98466.66;329803;29;1800;-72
2023/03/16 00:20:51;;;;;;;;;;;;;;;9.89;67.17;98457.97;329475;30;1254;-72
2023/03/16 00:21:01;;;;;;;;;;;;;;;9.89;67.48;98465.81;329310;29;1639;-72
2023/03/16 00:21:12;;;;;;;;;;;;;;;9.89;67.42;98465.81;327255;29;2584;-72
2023/03/16 00:21:22;;;;;;;;;;;;;;;9.88;67.21;98472.81;327065;30;1316;-72
2023/03/16 00:21:34;;;;;;;;;;;;;;;9.88;67.58;98466.72;329414;29;1333;-73
2023/03/16 00:21:44;;;;;;;;;;;;;;;9.86;67.65;98468.59;329447;29;881;-73
2023/03/16 00:21:54;;;;;;;;;;;;;;;9.85;67.60;98461.69;329703;29;1085;-73
2023/03/16 00:22:04;;;;;;;;;;;;;;;9.85;68.00;98467.75;330779;29;788;-73
2023/03/16 00:22:14;;;;;;;;;;;;;;;9.83;67.59;98461.75;329864;29;1822;-73
2023/03/16 00:22:25;;;;;;;;;;;;;;;9.84;67.71;98468.66;329043;30;2053;-72
2023/03/16 00:22:36;;;;;;;;;;;;;;;9.83;67.80;98468.75;326868;30;1335;-73
2023/03/16 00:22:46;;;;;;;;;;;;;;;9.83;67.77;98467.00;326303;30;2153;-73
2023/03/16 00:22:56;;;;;;;;;;;;;;;9.85;67.55;98464.28;325251;30;2448;-73
2023/03/16 00:23:06;;;;;;;;;;;;;;;9.85;67.77;98464.28;323392;30;1401;-73
2023/03/16 00:23:17;;;;;;;;;;;;;;;9.85;67.88;98466.91;317271;30;2487;-73
2023/03/16 00:23:27;;;;;;;;;;;;;;;9.85;67.90;98469.50;318519;30;2662;-73
2023/03/16 00:23:37;;;;;;;;;;;;;;;9.85;67.91;98461.69;319825;30;1815;-72
2023/03/16 00:23:48;;;;;;;;;;;;;;;9.85;67.77;98465.13;322293;30;1465;-72
2023/03/16 00:23:58;;;;;;;;;;;;;;;9.87;67.47;98470.28;320845;30;1290;-72
2023/03/16 00:24:08;;;;;;;;;;;;;;;9.87;67.67;98468.50;319148;30;2056;-72
2023/03/16 00:24:18;;;;;;;;;;;;;;;9.87;67.60;98462.44;317663;31;775;-72
2023/03/16 00:24:29;;;;;;;;;;;;;;;9.88;67.86;98464.13;317461;31;2502;-72
2023/03/16 00:24:42;;;;;;;;;;;;;;;9.87;67.96;98468.50;316801;31;2772;-73
2023/03/16 00:24:52;;;;;;;;;;;;;;;9.88;67.63;98471.97;316462;31;877;-72
2023/03/16 00:25:03;;;;;;;;;;;;;;;9.88;67.69;98464.97;313134;31;844;-72
2023/03/16 00:25:13;;;;;;;;;;;;;;;9.88;67.80;98464.97;312309;31;3390;-72
2023/03/16 00:25:23;;;;;;;;;;;;;;;9.88;67.83;98470.19;310313;31;3212;-72
2023/03/16 00:25:34;;;;;;;;;;;;;;;9.88;67.71;98461.50;308746;32;773;-73
2023/03/16 00:25:44;;;;;;;;;;;;;;;9.89;67.94;98460.56;311401;31;3221;-74
2023/03/16 00:26:01;;;;;;;;;;;;;;;9.90;68.16;98462.25;310373;31;2535;-73
2023/03/16 00:26:12;;;;;;;;;;;;;;;9.87;68.39;98463.28;309642;31;2201;-73
2023/03/16 00:26:22;;;;;;;;;;;;;;;9.88;67.97;98464.97;309820;31;920;-73
2023/03/16 00:26:32;;;;;;;;;;;;;;;9.88;68.11;98464.13;303477;32;853;-73
2023/03/16 00:26:45;;;;;;;;;;;;;;;9.88;68.32;98464.97;304767;32;3570;-73
2023/03/16 00:26:56;;;;;;;;;;;;;;;9.89;68.34;98460.56;304893;32;3737;-73
2023/03/16 00:27:06;;;;;;;;;;;;;;;9.88;68.08;98462.34;304496;32;916;-73
2023/03/16 00:27:16;;;;;;;;;;;;;;;9.90;67.91;98464.88;306295;32;5153;-74
2023/03/16 00:27:26;;;;;;;;;;;;;;;9.89;68.27;98463.19;306107;32;4609;-73
2023/03/16 00:27:37;;;;;;;;;;;;;;;9.89;67.97;98465.81;305556;32;856;-73
2023/03/16 00:27:47;;;;;;;;;;;;;;;9.89;68.22;98465.81;301606;32;4413;-72
2023/03/16 00:27:57;;;;;;;;;;;;;;;9.88;68.45;98461.50;302521;32;4463;-73
2023/03/16 00:28:07;;;;;;;;;;;;;;;9.89;68.47;98466.66;303354;32;3774;-72
2023/03/16 00:28:18;;;;;;;;;;;;;;;9.90;68.42;98464.88;306577;32;931;-73
2023/03/16 00:28:29;;;;;;;;;;;;;;;9.89;68.06;98461.41;302950;32;2990;-73
2023/03/16 00:28:41;;;;;;;;;;;;;;;9.89;68.44;98461.41;302653;32;3882;-73
2023/03/16 00:28:53;;;;;;;;;;;;;;;9.90;68.47;98459.66;303360;32;1360;-73
2023/03/16 00:29:03;;;;;;;;;;;;;;;9.90;68.27;98462.25;301217;32;1397;-72
2023/03/16 00:29:13;;;;;;;;;;;;;;;9.90;68.39;98463.09;299949;32;5818;-72
2023/03/16 00:29:23;;;;;;;;;;;;;;;9.91;68.71;98463.94;298999;32;7262;-72
2023/03/16 00:29:34;;;;;;;;;;;;;;;9.90;68.74;98462.25;299248;33;926;-73
2023/03/16 00:29:45;;;;;;;;;;;;;;;9.89;68.47;98465.81;299393;32;6536;-73
2023/03/16 00:29:56;;;;;;;;;;;;;;;9.88;68.54;98464.97;297819;33;5879;-73
2023/03/16 00:30:06;;;;;;;;;;;;;;;9.88;68.81;98459.72;296198;33;1259;-73
2023/03/16 00:30:16;;;;;;;;;;;;;;;9.89;68.70;98465.81;296571;32;6003;-73
2023/03/16 00:30:27;;;;;;;;;;;;;;;9.86;68.95;98460.75;294542;33;5204;-73
2023/03/16 00:30:37;;;;;;;;;;;;;;;9.86;68.99;98461.59;294242;33;2287;-72
2023/03/16 00:30:47;;;;;;;;;;;;;;;9.87;69.04;98467.66;290386;34;1349;-72
2023/03/16 00:30:57;;;;;;;;;;;;;;;9.86;68.91;98460.75;289105;34;5966;-72
2023/03/16 00:31:10;;;;;;;;;;;;;;;9.85;68.85;98459.91;288729;33;6968;-72
2023/03/16 00:31:23;;;;;;;;;;;;;;;9.86;69.03;98465.97;291370;34;899;-73
2023/03/16 00:31:34;;;;;;;;;;;;;;;9.87;69.07;98462.44;285608;34;1305;-73
2023/03/16 00:31:44;;;;;;;;;;;;;;;9.87;69.19;98462.44;284403;34;10173;-73
2023/03/16 00:31:55;;;;;;;;;;;;;;;9.88;69.19;98461.50;284361;34;9757;-73
2023/03/16 00:32:05;;;;;;;;;;;;;;;9.88;69.09;98458.91;285638;34;1316;-73
2023/03/16 00:34:14;;;;;;;;;;;;;;;9.89;69.20;98460.56;2483632;27;19923;-73
2023/03/16 00:34:24;;;;;;;;;;;;;;;9.88;69.33;98458.91;352356;28;770;-73
2023/03/16 00:34:34;;;;;;;;;;;;;;;9.88;69.30;98458.91;350554;28;808;-72
2023/03/16 00:34:45;;;;;;;;;;;;;;;9.88;69.57;98464.97;349164;28;983;-72
2023/03/16 00:34:55;;;;;;;;;;;;;;;9.89;69.49;98455.34;346342;28;1318;-72
2023/03/16 00:35:05;;;;;;;;;;;;;;;9.87;69.61;98457.22;345099;28;842;-73
2023/03/16 00:35:16;;;;;;;;;;;;;;;9.86;69.78;98463.34;345053;28;760;-73
2023/03/16 00:35:26;;;;;;;;;;;;;;;9.86;69.75;98458.97;346518;28;888;-72
2023/03/16 00:35:37;;;;;;;;;;;;;;;9.87;69.88;98462.44;346268;28;1337;-72
2023/03/16 00:35:50;;;;;;;;;;;;;;;9.88;69.78;98458.91;346301;28;809;-72
2023/03/16 00:36:03;;;;;;;;;;;;;;;9.87;69.63;98457.22;347841;28;1137;-73
2023/03/16 00:36:13;;;;;;;;;;;;;;;9.89;69.70;98450.13;346476;28;1243;-75
2023/03/16 00:36:24;;;;;;;;;;;;;;;9.89;69.45;98458.81;347161;28;1276;-74
2023/03/16 00:36:37;;;;;;;;;;;;;;;9.89;69.43;98458.81;347732;28;852;-73
2023/03/16 00:36:47;;;;;;;;;;;;;;;9.90;69.62;98460.50;344997;28;1275;-74
2023/03/16 00:36:57;;;;;;;;;;;;;;;9.90;69.55;98451.81;345049;28;835;-73
2023/03/16 00:37:07;;;;;;;;;;;;;;;9.92;69.59;98457.78;342342;28;2762;-74
2023/03/16 00:37:18;;;;;;;;;;;;;;;9.91;69.67;98456.09;343518;28;2348;-74
2023/03/16 00:37:28;;;;;;;;;;;;;;;9.92;69.81;98466.47;342308;28;1311;-73
2023/03/16 00:37:39;;;;;;;;;;;;;;;9.92;69.71;98455.19;340969;29;774;-74
2023/03/16 00:37:49;;;;;;;;;;;;;;;9.92;69.92;98461.25;340933;28;872;-72
2023/03/16 00:37:59;;;;;;;;;;;;;;;9.93;69.85;98462.94;340966;29;798;-72
2023/03/16 00:38:09;;;;;;;;;;;;;;;9.92;69.98;98455.19;342788;28;826;-72
2023/03/16 00:38:20;;;;;;;;;;;;;;;9.93;69.74;98462.94;343579;28;857;-73
2023/03/16 00:38:31;;;;;;;;;;;;;;;9.94;69.82;98458.53;342328;28;1361;-73
2023/03/16 00:38:45;;;;;;;;;;;;;;;9.93;69.63;98456.88;342348;28;1044;-73
2023/03/16 00:38:55;;;;;;;;;;;;;;;9.92;69.73;98460.41;343161;28;1228;-74
2023/03/16 00:39:06;;;;;;;;;;;;;;;9.93;69.72;98468.16;343646;28;873;-72
2023/03/16 00:39:16;;;;;;;;;;;;;;;9.93;69.85;98462.09;343639;28;1426;-74
2023/03/16 00:39:26;;;;;;;;;;;;;;;9.92;70.08;98456.03;343789;28;1226;-73
2023/03/16 00:39:36;;;;;;;;;;;;;;;9.92;69.90;98455.19;343701;28;869;-73
2023/03/16 00:39:46;;;;;;;;;;;;;;;9.92;69.88;98456.03;343725;28;1100;-72
2023/03/16 00:39:57;;;;;;;;;;;;;;;9.91;70.18;98458.72;343704;28;930;-72
2023/03/16 00:40:08;;;;;;;;;;;;;;;9.91;70.23;98458.72;343563;28;1370;-72
2023/03/16 00:40:18;;;;;;;;;;;;;;;9.91;70.17;98458.72;336658;29;1222;-72
2023/03/16 00:40:29;;;;;;;;;;;;;;;9.91;70.12;98458.72;342256;28;1249;-74
2023/03/16 00:40:39;;;;;;;;;;;;;;;9.91;70.47;98463.94;343022;28;1342;-72
2023/03/16 00:40:50;;;;;;;;;;;;;;;9.90;70.06;98462.25;344897;28;1191;-73
2023/03/16 00:41:02;;;;;;;;;;;;;;;9.89;70.50;98461.41;343668;28;1411;-73
2023/03/16 00:41:13;;;;;;;;;;;;;;;9.90;70.32;98462.25;340956;29;1283;-73
2023/03/16 00:41:23;;;;;;;;;;;;;;;9.90;70.48;98462.25;339769;29;972;-73
2023/03/16 00:41:36;;;;;;;;;;;;;;;9.91;70.20;98458.72;339515;29;854;-73
2023/03/16 00:41:47;;;;;;;;;;;;;;;9.91;70.10;98461.34;338427;29;914;-73
2023/03/16 00:41:57;;;;;;;;;;;;;;;9.92;70.47;98461.25;340751;29;1145;-73
2023/03/16 00:42:08;;;;;;;;;;;;;;;9.92;70.15;98466.47;343321;28;1404;-73
2023/03/16 00:42:18;;;;;;;;;;;;;;;9.91;70.59;98464.78;343511;28;1204;-73
2023/03/16 00:42:29;;;;;;;;;;;;;;;9.92;70.22;98461.25;343633;28;869;-72
2023/03/16 00:42:39;;;;;;;;;;;;;;;9.93;70.55;98462.09;343463;28;1120;-72
2023/03/16 00:42:50;;;;;;;;;;;;;;;9.92;70.54;98465.63;339911;28;1546;-73
2023/03/16 00:43:00;;;;;;;;;;;;;;;9.93;70.20;98459.47;342248;28;1311;-73
2023/03/16 00:43:11;;;;;;;;;;;;;;;9.92;70.71;98456.03;342954;28;1280;-73
2023/03/16 00:43:21;;;;;;;;;;;;;;;9.93;70.63;98462.94;343966;28;1452;-73
2023/03/16 00:43:39;;;;;;;;;;;;;;;9.92;70.48;98465.63;345032;28;1350;-73
2023/03/16 00:43:50;;;;;;;;;;;;;;;9.94;70.57;98469.00;342068;28;1598;-72
2023/03/16 00:44:00;;;;;;;;;;;;;;;9.92;70.77;98463.84;342426;28;813;-72
2023/03/16 00:44:11;;;;;;;;;;;;;;;9.93;70.77;98456.88;341981;28;1811;-74
2023/03/16 00:44:21;;;;;;;;;;;;;;;9.93;70.89;98462.09;338303;29;1851;-74
2023/03/16 00:44:31;;;;;;;;;;;;;;;9.91;70.82;98464.78;335741;29;1226;-73
2023/03/16 00:44:41;;;;;;;;;;;;;;;9.92;70.94;98465.63;337558;29;1338;-73
2023/03/16 00:44:56;;;;;;;;;;;;;;;9.92;71.00;98470.84;337212;29;1902;-74
2023/03/16 00:45:06;;;;;;;;;;;;;;;9.93;70.85;98457.69;338071;29;2028;-73
2023/03/16 00:45:17;;;;;;;;;;;;;;;9.94;70.49;98463.78;338406;29;889;-73
2023/03/16 00:45:27;;;;;;;;;;;;;;;9.94;70.62;98464.63;335582;29;1570;-73
2023/03/16 00:45:37;;;;;;;;;;;;;;;9.94;70.83;98464.63;336213;29;1321;-73
2023/03/16 00:45:47;;;;;;;;;;;;;;;9.94;71.00;98466.38;337077;29;1445;-73
2023/03/16 00:46:00;;;;;;;;;;;;;;;9.94;70.93;98463.78;336975;29;1361;-73
2023/03/16 00:46:10;;;;;;;;;;;;;;;9.93;70.85;98467.31;337380;29;3390;-73
2023/03/16 00:46:25;;;;;;;;;;;;;;;9.94;70.98;98471.63;337455;29;2862;-73
2023/03/16 00:46:36;;;;;;;;;;;;;;;9.94;70.97;98466.38;329333;29;2390;-73
2023/03/16 00:46:46;;;;;;;;;;;;;;;9.95;70.60;98460.22;321003;30;1275;-73
2023/03/16 00:46:56;;;;;;;;;;;;;;;9.95;70.75;98463.69;323435;30;2064;-73
2023/03/16 00:47:07;;;;;;;;;;;;;;;9.95;70.57;98461.06;322726;30;2395;-74
2023/03/16 00:47:17;;;;;;;;;;;;;;;9.95;70.74;98468.91;323424;30;872;-73
2023/03/16 00:47:28;;;;;;;;;;;;;;;9.96;71.11;98459.31;323063;30;2299;-73
2023/03/16 00:47:38;;;;;;;;;;;;;;;9.97;71.08;98463.56;323201;30;1706;-73
2023/03/16 00:47:48;;;;;;;;;;;;;;;9.96;70.97;98464.53;322053;30;1579;-73
2023/03/16 00:47:58;;;;;;;;;;;;;;;9.96;71.13;98467.16;322191;30;932;-73
2023/03/16 00:48:10;;;;;;;;;;;;;;;9.96;70.87;98461.91;323056;30;2313;-73
2023/03/16 00:48:23;;;;;;;;;;;;;;;9.94;71.07;98464.63;323038;30;2509;-73
2023/03/16 00:48:33;;;;;;;;;;;;;;;9.93;71.29;98462.09;322559;30;3055;-73
2023/03/16 00:48:44;;;;;;;;;;;;;;;9.93;71.16;98462.94;323447;30;983;-72
2023/03/16 00:48:54;;;;;;;;;;;;;;;9.92;71.33;98466.47;318663;30;3272;-72
2023/03/16 00:49:04;;;;;;;;;;;;;;;9.94;71.23;98469.00;316409;30;2939;-73
2023/03/16 00:49:15;;;;;;;;;;;;;;;9.92;71.44;98463.00;320003;30;770;-73
2023/03/16 00:49:25;;;;;;;;;;;;;;;9.92;71.26;98466.47;316428;31;3033;-72
2023/03/16 00:49:35;;;;;;;;;;;;;;;9.91;71.40;98469.16;314829;31;2736;-72
2023/03/16 00:49:45;;;;;;;;;;;;;;;9.90;71.50;98468.34;318908;31;984;-74
2023/03/16 00:49:56;;;;;;;;;;;;;;;9.91;71.58;98466.56;320252;30;2254;-73
2023/03/16 00:50:06;;;;;;;;;;;;;;;9.91;71.72;98463.94;319914;30;2259;-73
2023/03/16 00:50:16;;;;;;;;;;;;;;;9.90;71.54;98463.09;318848;31;901;-73
2023/03/16 00:50:27;;;;;;;;;;;;;;;9.92;71.33;98468.25;319072;30;2888;-73
2023/03/16 00:50:37;;;;;;;;;;;;;;;9.91;71.40;98470.00;316215;31;3733;-73
2023/03/16 00:50:47;;;;;;;;;;;;;;;9.92;71.43;98470.84;313063;31;1280;-76
2023/03/16 00:50:58;;;;;;;;;;;;;;;9.91;71.70;98471.78;307658;31;5273;-73
2023/03/16 00:51:12;;;;;;;;;;;;;;;9.93;71.55;98465.53;308163;31;5060;-73
2023/03/16 00:51:22;;;;;;;;;;;;;;;9.93;71.46;98469.94;309895;31;4589;-73
2023/03/16 00:51:32;;;;;;;;;;;;;;;9.93;71.35;98472.53;309828;31;1206;-73
2023/03/16 00:51:45;;;;;;;;;;;;;;;9.94;71.59;98471.63;310041;31;4372;-72
2023/03/16 00:51:55;;;;;;;;;;;;;;;9.94;71.40;98464.63;308215;31;3954;-73
2023/03/16 00:52:06;;;;;;;;;;;;;;;9.94;71.77;98467.22;306690;32;3431;-72
2023/03/16 00:52:16;;;;;;;;;;;;;;;9.94;71.55;98474.22;306502;32;1573;-72
2023/03/16 00:52:26;;;;;;;;;;;;;;;9.95;71.59;98470.69;304794;32;3389;-72
2023/03/16 00:52:37;;;;;;;;;;;;;;;9.95;71.43;98473.31;303877;32;4471;-77
2023/03/16 00:52:47;;;;;;;;;;;;;;;9.95;71.48;98481.13;303384;32;1281;-73
2023/03/16 00:52:57;;;;;;;;;;;;;;;9.96;71.75;98474.97;301965;32;5887;-73
2023/03/16 00:53:08;;;;;;;;;;;;;;;9.96;71.61;98474.97;299116;32;6889;-73
2023/03/16 00:53:18;;;;;;;;;;;;;;;9.96;71.70;98469.75;296892;32;7090;-73
2023/03/16 00:53:28;;;;;;;;;;;;;;;9.96;71.65;98474.97;298283;33;880;-74
2023/03/16 00:53:39;;;;;;;;;;;;;;;9.96;71.91;98478.41;298943;32;6604;-74
2023/03/16 00:53:49;;;;;;;;;;;;;;;9.97;71.77;98474.03;300127;32;6176;-73
2023/03/16 00:54:00;;;;;;;;;;;;;;;9.96;71.86;98472.38;299372;33;916;-73
2023/03/16 00:54:10;;;;;;;;;;;;;;;9.98;71.89;98475.72;295801;33;5740;-73
2023/03/16 00:54:21;;;;;;;;;;;;;;;9.96;71.65;98473.19;295100;33;4436;-72
2023/03/16 00:54:34;;;;;;;;;;;;;;;9.97;71.85;98468.78;299272;33;811;-72
2023/03/16 00:54:44;;;;;;;;;;;;;;;9.96;71.81;98470.56;296221;33;1276;-73
2023/03/16 00:54:55;;;;;;;;;;;;;;;9.97;71.76;98474.03;296440;33;6113;-72
2023/03/16 00:55:05;;;;;;;;;;;;;;;9.97;71.86;98479.25;296023;33;8702;-71
2023/03/16 00:55:15;;;;;;;;;;;;;;;9.97;71.93;98476.63;299313;33;790;-71
2023/03/16 00:55:26;;;;;;;;;;;;;;;9.96;71.90;98474.97;295189;33;8866;-71
2023/03/16 00:57:41;;;;;;;;;;;;;;;9.95;72.65;98475.91;2504112;27;19926;-73
2023/03/16 00:57:51;;;;;;;;;;;;;;;9.96;72.70;98477.59;356076;27;1218;-73
2023/03/16 00:58:03;;;;;;;;;;;;;;;9.96;72.67;98477.59;354763;27;887;-73
2023/03/16 00:58:14;;;;;;;;;;;;;;;9.96;72.44;98472.38;354750;27;824;-73
2023/03/16 00:58:24;;;;;;;;;;;;;;;9.96;72.38;98473.19;353428;28;811;-73
2023/03/16 00:58:35;;;;;;;;;;;;;;;9.97;72.50;98474.03;351926;28;1260;-73
2023/03/16 00:58:45;;;;;;;;;;;;;;;9.96;72.53;98473.19;350591;28;995;-72
2023/03/16 00:58:56;;;;;;;;;;;;;;;9.98;72.30;98475.72;351984;28;1183;-73
2023/03/16 00:59:07;;;;;;;;;;;;;;;9.99;72.36;98477.41;350360;28;1302;-73
2023/03/16 00:59:18;;;;;;;;;;;;;;;9.98;72.37;98470.47;351803;28;1752;-72
2023/03/16 00:59:30;;;;;;;;;;;;;;;9.98;72.59;98480.94;352017;28;887;-79
2023/03/16 00:59:40;;;;;;;;;;;;;;;9.98;72.72;98476.56;351879;28;1260;-72
2023/03/16 00:59:51;;;;;;;;;;;;;;;9.98;72.74;98476.56;350504;28;889;-73
2023/03/16 01:00:11;;;;;;;;;;;;;;;9.99;72.43;98478.22;351780;28;1225;-73
2023/03/16 01:00:24;;;;;;;;;;;;;;;9.98;72.57;98476.56;351981;28;1236;-73
2023/03/16 01:00:35;;;;;;;;;;;;;;;9.98;72.72;98476.56;351987;28;888;-75
2023/03/16 01:00:46;;;;;;;;;;;;;;;9.98;72.48;98475.72;350416;28;1223;-73
2023/03/16 01:00:58;;;;;;;;;;;;;;;9.98;72.33;98480.94;349204;28;1212;-73
2023/03/16 01:01:09;;;;;;;;;;;;;;;9.98;72.57;98478.31;350436;28;1270;-73
2023/03/16 01:01:19;;;;;;;;;;;;;;;9.98;72.49;98480.94;350358;28;1243;-73
2023/03/16 01:01:31;;;;;;;;;;;;;;;9.97;72.80;98476.63;350343;28;1334;-73
2023/03/16 01:01:41;;;;;;;;;;;;;;;9.97;72.96;98479.25;350513;28;1466;-72
2023/03/16 01:01:52;;;;;;;;;;;;;;;9.97;73.03;98480.09;348130;28;860;-72
2023/03/16 01:02:02;;;;;;;;;;;;;;;9.97;72.81;98481.88;346965;28;1362;-73
2023/03/16 01:02:13;;;;;;;;;;;;;;;9.96;72.90;98477.59;349109;28;800;-72
2023/03/16 01:02:24;;;;;;;;;;;;;;;9.95;73.34;98475.91;347495;28;1195;-73
2023/03/16 01:02:35;;;;;;;;;;;;;;;9.96;72.90;98480.22;348678;28;1717;-72
2023/03/16 01:02:46;;;;;;;;;;;;;;;9.96;73.21;98482.81;349072;28;1436;-72
2023/03/16 01:02:56;;;;;;;;;;;;;;;9.95;73.17;98481.97;347694;28;1324;-72
2023/03/16 01:03:06;;;;;;;;;;;;;;;9.96;73.05;98482.81;347603;28;1594;-72
2023/03/16 01:03:16;;;;;;;;;;;;;;;9.95;73.11;98475.91;347586;28;884;-72
2023/03/16 01:03:27;;;;;;;;;;;;;;;9.96;73.04;98485.44;345080;28;832;-73
2023/03/16 01:03:37;;;;;;;;;;;;;;;9.97;73.29;98484.47;342217;28;1080;-72
2023/03/16 01:03:47;;;;;;;;;;;;;;;9.95;73.22;98487.22;340214;29;1472;-72
2023/03/16 01:04:02;;;;;;;;;;;;;;;9.95;73.36;98476.75;339801;29;885;-72